sensor_id;sensor_type;location;lat;lon;timestamp;P1;durP1;ratioP1;P2;durP2;ratioP2
45792;SDS011;31495;42.740;22.908;2023-05-01T00:00:17;13.15;;;8.02;;
45792;SDS011;31495;42.740;22.908;2023-05-01T00:01:17;13.48;;;9.10;;
45792;SDS011;31495;42.740;22.908;2023-05-01T00:02:17;15.73;;;9.07;;
45792;SDS011;31495;42.740;22.908;2023-05-01T00:03:16;14.75;;;8.80;;
45792;SDS011;31495;42.740;22.908;2023-05-01T00:04:16;14.55;;;9.60;;
45792;SDS011;31495;42.740;22.908;2023-05-01T00:05:16;16.02;;;9.05;;
45792;SDS011;31495;42.740;22.908;2023-05-01T00:06:15;15.50;;;9.27;;
45792;SDS011;31495;42.740;22.908;2023-05-01T00:07:14;12.13;;;8.23;;
45792;SDS011;31495;42.740;22.908;2023-05-01T00:08:14;9.45;;;6.60;;
45792;SDS011;31495;42.740;22.908;2023-05-01T00:09:14;9.30;;;5.45;;
45792;SDS011;31495;42.740;22.908;2023-05-01T00:10:13;9.43;;;6.53;;
45792;SDS011;31495;42.740;22.908;2023-05-01T00:11:13;9.38;;;6.13;;
45792;SDS011;31495;42.740;22.908;2023-05-01T00:12:13;9.90;;;5.43;;
45792;SDS011;31495;42.740;22.908;2023-05-01T00:13:12;9.73;;;6.25;;
45792;SDS011;31495;42.740;22.908;2023-05-01T00:14:12;8.55;;;5.32;;
45792;SDS011;31495;42.740;22.908;2023-05-01T00:15:11;8.32;;;5.18;;
45792;SDS011;31495;42.740;22.908;2023-05-01T00:16:11;6.78;;;5.10;;
45792;SDS011;31495;42.740;22.908;2023-05-01T00:17:10;7.63;;;4.93;;
45792;SDS011;31495;42.740;22.908;2023-05-01T00:18:10;8.95;;;5.57;;
45792;SDS011;31495;42.740;22.908;2023-05-01T00:19:09;7.00;;;5.25;;
45792;SDS011;31495;42.740;22.908;2023-05-01T00:20:10;9.77;;;5.25;;
45792;SDS011;31495;42.740;22.908;2023-05-01T00:21:10;9.48;;;5.57;;
45792;SDS011;31495;42.740;22.908;2023-05-01T00:22:10;10.90;;;5.85;;
45792;SDS011;31495;42.740;22.908;2023-05-01T00:23:09;11.88;;;7.03;;
45792;SDS011;31495;42.740;22.908;2023-05-01T00:24:10;11.82;;;6.57;;
45792;SDS011;31495;42.740;22.908;2023-05-01T00:25:10;12.32;;;6.30;;
45792;SDS011;31495;42.740;22.908;2023-05-01T00:26:09;11.60;;;7.18;;
45792;SDS011;31495;42.740;22.908;2023-05-01T00:27:09;10.85;;;6.20;;
45792;SDS011;31495;42.740;22.908;2023-05-01T00:28:08;10.45;;;6.25;;
45792;SDS011;31495;42.740;22.908;2023-05-01T00:29:07;11.27;;;6.05;;
45792;SDS011;31495;42.740;22.908;2023-05-01T00:30:07;13.90;;;6.32;;
45792;SDS011;31495;42.740;22.908;2023-05-01T00:31:07;10.63;;;5.82;;
45792;SDS011;31495;42.740;22.908;2023-05-01T00:32:07;9.18;;;5.97;;
45792;SDS011;31495;42.740;22.908;2023-05-01T00:33:08;7.45;;;4.85;;
45792;SDS011;31495;42.740;22.908;2023-05-01T00:34:08;10.50;;;5.85;;
45792;SDS011;31495;42.740;22.908;2023-05-01T00:35:09;9.77;;;5.70;;
45792;SDS011;31495;42.740;22.908;2023-05-01T00:36:10;8.27;;;5.25;;
45792;SDS011;31495;42.740;22.908;2023-05-01T00:37:09;9.02;;;5.45;;
45792;SDS011;31495;42.740;22.908;2023-05-01T00:38:09;8.20;;;5.40;;
45792;SDS011;31495;42.740;22.908;2023-05-01T00:39:08;8.80;;;5.80;;
45792;SDS011;31495;42.740;22.908;2023-05-01T00:40:07;9.18;;;6.32;;
45792;SDS011;31495;42.740;22.908;2023-05-01T00:41:07;6.78;;;4.57;;
45792;SDS011;31495;42.740;22.908;2023-05-01T00:42:07;13.38;;;5.72;;
45792;SDS011;31495;42.740;22.908;2023-05-01T00:43:06;7.85;;;5.75;;
45792;SDS011;31495;42.740;22.908;2023-05-01T00:44:06;8.95;;;5.78;;
45792;SDS011;31495;42.740;22.908;2023-05-01T00:45:05;8.20;;;5.93;;
45792;SDS011;31495;42.740;22.908;2023-05-01T00:46:06;7.85;;;4.55;;
45792;SDS011;31495;42.740;22.908;2023-05-01T00:47:06;7.55;;;4.85;;
45792;SDS011;31495;42.740;22.908;2023-05-01T00:48:05;7.93;;;4.55;;
45792;SDS011;31495;42.740;22.908;2023-05-01T00:49:05;7.63;;;5.50;;
45792;SDS011;31495;42.740;22.908;2023-05-01T00:50:05;8.55;;;5.45;;
45792;SDS011;31495;42.740;22.908;2023-05-01T00:51:06;8.55;;;4.95;;
45792;SDS011;31495;42.740;22.908;2023-05-01T00:52:07;7.93;;;5.90;;
45792;SDS011;31495;42.740;22.908;2023-05-01T00:53:07;7.43;;;5.18;;
45792;SDS011;31495;42.740;22.908;2023-05-01T00:54:07;10.05;;;5.03;;
45792;SDS011;31495;42.740;22.908;2023-05-01T00:55:06;8.88;;;5.90;;
45792;SDS011;31495;42.740;22.908;2023-05-01T00:56:06;9.77;;;6.00;;
45792;SDS011;31495;42.740;22.908;2023-05-01T00:57:06;9.50;;;6.47;;
45792;SDS011;31495;42.740;22.908;2023-05-01T00:58:07;8.32;;;5.60;;
45792;SDS011;31495;42.740;22.908;2023-05-01T00:59:09;8.43;;;6.38;;
45792;SDS011;31495;42.740;22.908;2023-05-01T01:00:09;8.02;;;5.25;;
45792;SDS011;31495;42.740;22.908;2023-05-01T01:01:10;10.20;;;5.82;;
45792;SDS011;31495;42.740;22.908;2023-05-01T01:02:10;9.35;;;6.30;;
45792;SDS011;31495;42.740;22.908;2023-05-01T01:03:10;10.85;;;6.05;;
45792;SDS011;31495;42.740;22.908;2023-05-01T01:04:10;8.63;;;5.97;;
45792;SDS011;31495;42.740;22.908;2023-05-01T01:05:10;9.15;;;6.15;;
45792;SDS011;31495;42.740;22.908;2023-05-01T01:07:21;8.48;;;5.32;;
45792;SDS011;31495;42.740;22.908;2023-05-01T01:08:29;8.48;;;5.55;;
45792;SDS011;31495;42.740;22.908;2023-05-01T01:11:19;11.93;;;6.32;;
45792;SDS011;31495;42.740;22.908;2023-05-01T01:14:07;10.68;;;5.95;;
45792;SDS011;31495;42.740;22.908;2023-05-01T01:15:26;8.38;;;5.55;;
45792;SDS011;31495;42.740;22.908;2023-05-01T01:16:43;7.72;;;5.25;;
45792;SDS011;31495;42.740;22.908;2023-05-01T01:17:58;10.85;;;5.93;;
45792;SDS011;31495;42.740;22.908;2023-05-01T01:19:03;14.38;;;7.03;;
45792;SDS011;31495;42.740;22.908;2023-05-01T01:21:44;11.52;;;6.90;;
45792;SDS011;31495;42.740;22.908;2023-05-01T01:22:48;9.20;;;5.45;;
45792;SDS011;31495;42.740;22.908;2023-05-01T01:24:11;10.13;;;5.28;;
45792;SDS011;31495;42.740;22.908;2023-05-01T01:35:17;9.75;;;5.68;;
45792;SDS011;31495;42.740;22.908;2023-05-01T01:36:19;11.50;;;6.60;;
45792;SDS011;31495;42.740;22.908;2023-05-01T01:37:41;8.98;;;5.20;;
45792;SDS011;31495;42.740;22.908;2023-05-01T01:38:49;13.82;;;5.35;;
45792;SDS011;31495;42.740;22.908;2023-05-01T01:40:10;11.27;;;6.10;;
45792;SDS011;31495;42.740;22.908;2023-05-01T01:41:18;13.30;;;7.00;;
45792;SDS011;31495;42.740;22.908;2023-05-01T01:42:24;12.43;;;6.38;;
45792;SDS011;31495;42.740;22.908;2023-05-01T01:43:29;12.80;;;6.97;;
45792;SDS011;31495;42.740;22.908;2023-05-01T01:44:37;16.85;;;8.07;;
45792;SDS011;31495;42.740;22.908;2023-05-01T01:45:41;17.25;;;8.05;;
45792;SDS011;31495;42.740;22.908;2023-05-01T01:46:44;13.52;;;7.35;;
45792;SDS011;31495;42.740;22.908;2023-05-01T01:47:46;17.73;;;7.82;;
45792;SDS011;31495;42.740;22.908;2023-05-01T01:48:47;18.48;;;7.43;;
45792;SDS011;31495;42.740;22.908;2023-05-01T01:49:50;12.88;;;6.75;;
45792;SDS011;31495;42.740;22.908;2023-05-01T01:50:51;13.45;;;7.07;;
45792;SDS011;31495;42.740;22.908;2023-05-01T01:51:55;12.80;;;6.65;;
45792;SDS011;31495;42.740;22.908;2023-05-01T01:52:57;12.80;;;6.88;;
45792;SDS011;31495;42.740;22.908;2023-05-01T01:54:00;11.95;;;6.45;;
45792;SDS011;31495;42.740;22.908;2023-05-01T01:55:03;11.98;;;6.75;;
45792;SDS011;31495;42.740;22.908;2023-05-01T01:56:05;9.25;;;5.55;;
45792;SDS011;31495;42.740;22.908;2023-05-01T01:57:07;11.73;;;6.15;;
45792;SDS011;31495;42.740;22.908;2023-05-01T01:58:09;7.88;;;5.45;;
45792;SDS011;31495;42.740;22.908;2023-05-01T01:59:11;9.43;;;5.63;;
45792;SDS011;31495;42.740;22.908;2023-05-01T02:00:13;9.73;;;5.55;;
45792;SDS011;31495;42.740;22.908;2023-05-01T02:01:14;10.45;;;6.00;;
45792;SDS011;31495;42.740;22.908;2023-05-01T02:02:17;8.30;;;5.60;;
45792;SDS011;31495;42.740;22.908;2023-05-01T02:03:21;10.13;;;5.35;;
45792;SDS011;31495;42.740;22.908;2023-05-01T02:04:22;10.73;;;6.13;;
45792;SDS011;31495;42.740;22.908;2023-05-01T02:06:23;9.02;;;5.53;;
45792;SDS011;31495;42.740;22.908;2023-05-01T02:07:24;10.98;;;5.85;;
45792;SDS011;31495;42.740;22.908;2023-05-01T02:08:28;11.18;;;6.22;;
45792;SDS011;31495;42.740;22.908;2023-05-01T02:09:30;9.45;;;5.43;;
45792;SDS011;31495;42.740;22.908;2023-05-01T02:10:30;11.63;;;5.70;;
45792;SDS011;31495;42.740;22.908;2023-05-01T02:11:31;9.43;;;6.13;;
45792;SDS011;31495;42.740;22.908;2023-05-01T02:12:35;10.45;;;5.50;;
45792;SDS011;31495;42.740;22.908;2023-05-01T02:13:35;8.48;;;5.18;;
45792;SDS011;31495;42.740;22.908;2023-05-01T02:14:37;7.88;;;5.30;;
45792;SDS011;31495;42.740;22.908;2023-05-01T02:15:39;8.85;;;5.85;;
45792;SDS011;31495;42.740;22.908;2023-05-01T02:16:38;10.88;;;5.55;;
45792;SDS011;31495;42.740;22.908;2023-05-01T02:17:40;6.85;;;4.65;;
45792;SDS011;31495;42.740;22.908;2023-05-01T02:18:40;7.63;;;5.70;;
45792;SDS011;31495;42.740;22.908;2023-05-01T02:19:42;8.10;;;5.57;;
45792;SDS011;31495;42.740;22.908;2023-05-01T02:20:43;9.55;;;5.38;;
45792;SDS011;31495;42.740;22.908;2023-05-01T02:21:44;9.43;;;5.63;;
45792;SDS011;31495;42.740;22.908;2023-05-01T02:22:44;8.70;;;5.45;;
45792;SDS011;31495;42.740;22.908;2023-05-01T02:23:44;9.63;;;4.80;;
45792;SDS011;31495;42.740;22.908;2023-05-01T02:24:44;7.28;;;4.95;;
45792;SDS011;31495;42.740;22.908;2023-05-01T02:25:46;7.57;;;4.50;;
45792;SDS011;31495;42.740;22.908;2023-05-01T02:26:53;7.68;;;5.65;;
45792;SDS011;31495;42.740;22.908;2023-05-01T02:28:01;12.48;;;6.28;;
45792;SDS011;31495;42.740;22.908;2023-05-01T02:29:04;9.63;;;5.95;;
45792;SDS011;31495;42.740;22.908;2023-05-01T02:30:06;10.13;;;5.72;;
45792;SDS011;31495;42.740;22.908;2023-05-01T02:31:06;11.25;;;6.55;;
45792;SDS011;31495;42.740;22.908;2023-05-01T02:32:05;9.57;;;6.10;;
45792;SDS011;31495;42.740;22.908;2023-05-01T02:33:07;8.13;;;5.22;;
45792;SDS011;31495;42.740;22.908;2023-05-01T02:34:07;9.25;;;5.38;;
45792;SDS011;31495;42.740;22.908;2023-05-01T02:35:07;9.85;;;6.10;;
45792;SDS011;31495;42.740;22.908;2023-05-01T02:36:07;8.15;;;5.70;;
45792;SDS011;31495;42.740;22.908;2023-05-01T02:37:06;8.50;;;5.25;;
45792;SDS011;31495;42.740;22.908;2023-05-01T02:38:09;7.13;;;4.93;;
45792;SDS011;31495;42.740;22.908;2023-05-01T02:39:11;9.88;;;5.85;;
45792;SDS011;31495;42.740;22.908;2023-05-01T02:40:11;8.50;;;5.85;;
45792;SDS011;31495;42.740;22.908;2023-05-01T02:41:13;6.65;;;4.68;;
45792;SDS011;31495;42.740;22.908;2023-05-01T02:42:14;8.35;;;5.35;;
45792;SDS011;31495;42.740;22.908;2023-05-01T02:43:17;8.52;;;5.57;;
45792;SDS011;31495;42.740;22.908;2023-05-01T02:44:19;8.60;;;5.55;;
45792;SDS011;31495;42.740;22.908;2023-05-01T02:45:20;8.40;;;5.95;;
45792;SDS011;31495;42.740;22.908;2023-05-01T02:46:23;11.18;;;5.45;;
45792;SDS011;31495;42.740;22.908;2023-05-01T02:47:26;10.02;;;5.95;;
45792;SDS011;31495;42.740;22.908;2023-05-01T02:48:27;8.35;;;5.50;;
45792;SDS011;31495;42.740;22.908;2023-05-01T02:49:28;6.30;;;4.70;;
45792;SDS011;31495;42.740;22.908;2023-05-01T02:50:30;8.63;;;6.00;;
45792;SDS011;31495;42.740;22.908;2023-05-01T02:51:30;8.60;;;4.90;;
45792;SDS011;31495;42.740;22.908;2023-05-01T02:52:30;8.40;;;5.60;;
45792;SDS011;31495;42.740;22.908;2023-05-01T02:53:30;9.10;;;5.53;;
45792;SDS011;31495;42.740;22.908;2023-05-01T02:54:31;8.88;;;6.15;;
45792;SDS011;31495;42.740;22.908;2023-05-01T02:55:31;9.18;;;6.35;;
45792;SDS011;31495;42.740;22.908;2023-05-01T02:56:31;9.38;;;6.05;;
45792;SDS011;31495;42.740;22.908;2023-05-01T02:57:32;10.85;;;6.00;;
45792;SDS011;31495;42.740;22.908;2023-05-01T02:58:32;10.35;;;6.15;;
45792;SDS011;31495;42.740;22.908;2023-05-01T02:59:32;9.63;;;5.70;;
45792;SDS011;31495;42.740;22.908;2023-05-01T03:00:33;15.80;;;6.95;;
45792;SDS011;31495;42.740;22.908;2023-05-01T03:01:33;7.65;;;5.35;;
45792;SDS011;31495;42.740;22.908;2023-05-01T03:02:33;7.70;;;5.25;;
45792;SDS011;31495;42.740;22.908;2023-05-01T03:03:32;11.07;;;5.97;;
45792;SDS011;31495;42.740;22.908;2023-05-01T03:04:31;8.05;;;5.85;;
45792;SDS011;31495;42.740;22.908;2023-05-01T03:05:31;9.40;;;6.32;;
45792;SDS011;31495;42.740;22.908;2023-05-01T03:06:31;10.05;;;6.03;;
45792;SDS011;31495;42.740;22.908;2023-05-01T03:07:30;8.82;;;5.80;;
45792;SDS011;31495;42.740;22.908;2023-05-01T03:08:33;9.20;;;6.55;;
45792;SDS011;31495;42.740;22.908;2023-05-01T03:09:33;8.50;;;6.10;;
45792;SDS011;31495;42.740;22.908;2023-05-01T03:10:32;8.02;;;6.10;;
45792;SDS011;31495;42.740;22.908;2023-05-01T03:11:32;12.63;;;6.93;;
45792;SDS011;31495;42.740;22.908;2023-05-01T03:12:32;9.52;;;6.60;;
45792;SDS011;31495;42.740;22.908;2023-05-01T03:13:32;10.65;;;6.07;;
45792;SDS011;31495;42.740;22.908;2023-05-01T03:14:32;9.35;;;6.78;;
45792;SDS011;31495;42.740;22.908;2023-05-01T03:15:32;11.32;;;6.35;;
45792;SDS011;31495;42.740;22.908;2023-05-01T03:16:31;8.73;;;6.30;;
45792;SDS011;31495;42.740;22.908;2023-05-01T03:17:31;9.13;;;6.00;;
45792;SDS011;31495;42.740;22.908;2023-05-01T03:18:30;10.95;;;6.10;;
45792;SDS011;31495;42.740;22.908;2023-05-01T03:19:29;10.50;;;6.20;;
45792;SDS011;31495;42.740;22.908;2023-05-01T03:20:29;8.48;;;5.63;;
45792;SDS011;31495;42.740;22.908;2023-05-01T03:21:29;9.07;;;5.10;;
45792;SDS011;31495;42.740;22.908;2023-05-01T03:22:29;9.90;;;6.53;;
45792;SDS011;31495;42.740;22.908;2023-05-01T03:23:31;11.43;;;6.38;;
45792;SDS011;31495;42.740;22.908;2023-05-01T03:24:30;9.40;;;6.28;;
45792;SDS011;31495;42.740;22.908;2023-05-01T03:25:30;8.93;;;6.38;;
45792;SDS011;31495;42.740;22.908;2023-05-01T03:26:30;10.35;;;7.05;;
45792;SDS011;31495;42.740;22.908;2023-05-01T03:27:31;10.35;;;6.55;;
45792;SDS011;31495;42.740;22.908;2023-05-01T03:28:30;13.13;;;6.93;;
45792;SDS011;31495;42.740;22.908;2023-05-01T03:29:30;8.20;;;5.65;;
45792;SDS011;31495;42.740;22.908;2023-05-01T03:30:32;10.63;;;6.10;;
45792;SDS011;31495;42.740;22.908;2023-05-01T03:31:32;9.63;;;6.03;;
45792;SDS011;31495;42.740;22.908;2023-05-01T03:32:31;11.20;;;7.10;;
45792;SDS011;31495;42.740;22.908;2023-05-01T03:33:31;9.50;;;6.25;;
45792;SDS011;31495;42.740;22.908;2023-05-01T03:34:30;8.95;;;6.72;;
45792;SDS011;31495;42.740;22.908;2023-05-01T03:35:30;8.77;;;6.43;;
45792;SDS011;31495;42.740;22.908;2023-05-01T03:36:29;8.00;;;5.63;;
45792;SDS011;31495;42.740;22.908;2023-05-01T03:37:31;7.80;;;5.82;;
45792;SDS011;31495;42.740;22.908;2023-05-01T03:38:31;9.30;;;6.05;;
45792;SDS011;31495;42.740;22.908;2023-05-01T03:39:31;9.55;;;5.72;;
45792;SDS011;31495;42.740;22.908;2023-05-01T03:40:30;10.65;;;6.53;;
45792;SDS011;31495;42.740;22.908;2023-05-01T03:41:29;8.13;;;5.93;;
45792;SDS011;31495;42.740;22.908;2023-05-01T03:42:29;11.32;;;6.10;;
45792;SDS011;31495;42.740;22.908;2023-05-01T03:43:28;13.32;;;6.13;;
45792;SDS011;31495;42.740;22.908;2023-05-01T03:44:28;11.48;;;6.70;;
45792;SDS011;31495;42.740;22.908;2023-05-01T03:45:27;11.52;;;6.97;;
45792;SDS011;31495;42.740;22.908;2023-05-01T03:46:27;15.43;;;6.93;;
45792;SDS011;31495;42.740;22.908;2023-05-01T03:47:26;10.60;;;6.75;;
45792;SDS011;31495;42.740;22.908;2023-05-01T03:48:27;12.27;;;7.38;;
45792;SDS011;31495;42.740;22.908;2023-05-01T03:49:27;12.75;;;7.85;;
45792;SDS011;31495;42.740;22.908;2023-05-01T03:50:26;13.00;;;8.10;;
45792;SDS011;31495;42.740;22.908;2023-05-01T03:51:26;11.85;;;7.15;;
45792;SDS011;31495;42.740;22.908;2023-05-01T03:52:26;11.50;;;6.95;;
45792;SDS011;31495;42.740;22.908;2023-05-01T03:53:25;13.07;;;7.20;;
45792;SDS011;31495;42.740;22.908;2023-05-01T03:54:25;11.27;;;8.23;;
45792;SDS011;31495;42.740;22.908;2023-05-01T03:55:24;12.88;;;7.93;;
45792;SDS011;31495;42.740;22.908;2023-05-01T03:56:25;12.02;;;7.60;;
45792;SDS011;31495;42.740;22.908;2023-05-01T03:57:24;9.88;;;7.18;;
45792;SDS011;31495;42.740;22.908;2023-05-01T03:58:25;13.73;;;7.68;;
45792;SDS011;31495;42.740;22.908;2023-05-01T03:59:24;13.57;;;7.82;;
45792;SDS011;31495;42.740;22.908;2023-05-01T04:00:25;12.90;;;8.38;;
45792;SDS011;31495;42.740;22.908;2023-05-01T04:01:25;11.57;;;7.55;;
45792;SDS011;31495;42.740;22.908;2023-05-01T04:02:25;16.67;;;8.88;;
45792;SDS011;31495;42.740;22.908;2023-05-01T04:03:25;14.50;;;8.65;;
45792;SDS011;31495;42.740;22.908;2023-05-01T04:04:25;14.43;;;7.97;;
45792;SDS011;31495;42.740;22.908;2023-05-01T04:05:24;12.98;;;7.45;;
45792;SDS011;31495;42.740;22.908;2023-05-01T04:06:24;11.20;;;7.75;;
45792;SDS011;31495;42.740;22.908;2023-05-01T04:07:24;13.52;;;8.52;;
45792;SDS011;31495;42.740;22.908;2023-05-01T04:08:23;11.23;;;8.30;;
45792;SDS011;31495;42.740;22.908;2023-05-01T04:09:23;12.27;;;7.85;;
45792;SDS011;31495;42.740;22.908;2023-05-01T04:10:23;11.23;;;7.82;;
45792;SDS011;31495;42.740;22.908;2023-05-01T04:11:22;11.68;;;6.88;;
45792;SDS011;31495;42.740;22.908;2023-05-01T04:12:21;11.95;;;7.47;;
45792;SDS011;31495;42.740;22.908;2023-05-01T04:13:21;13.75;;;6.55;;
45792;SDS011;31495;42.740;22.908;2023-05-01T04:14:20;10.48;;;6.03;;
45792;SDS011;31495;42.740;22.908;2023-05-01T04:15:20;9.82;;;6.35;;
45792;SDS011;31495;42.740;22.908;2023-05-01T04:16:20;9.73;;;5.93;;
45792;SDS011;31495;42.740;22.908;2023-05-01T04:17:20;8.40;;;6.03;;
45792;SDS011;31495;42.740;22.908;2023-05-01T04:18:19;8.70;;;5.90;;
45792;SDS011;31495;42.740;22.908;2023-05-01T04:19:19;8.45;;;5.82;;
45792;SDS011;31495;42.740;22.908;2023-05-01T04:20:18;8.30;;;6.18;;
45792;SDS011;31495;42.740;22.908;2023-05-01T04:21:18;13.20;;;6.28;;
45792;SDS011;31495;42.740;22.908;2023-05-01T04:22:17;8.90;;;6.13;;
45792;SDS011;31495;42.740;22.908;2023-05-01T04:23:17;9.00;;;6.13;;
45792;SDS011;31495;42.740;22.908;2023-05-01T04:24:18;9.45;;;6.80;;
45792;SDS011;31495;42.740;22.908;2023-05-01T04:25:17;10.13;;;6.05;;
45792;SDS011;31495;42.740;22.908;2023-05-01T04:26:17;12.38;;;5.63;;
45792;SDS011;31495;42.740;22.908;2023-05-01T04:27:16;10.10;;;6.45;;
45792;SDS011;31495;42.740;22.908;2023-05-01T04:28:17;11.25;;;6.70;;
45792;SDS011;31495;42.740;22.908;2023-05-01T04:29:17;10.60;;;7.22;;
45792;SDS011;31495;42.740;22.908;2023-05-01T04:30:17;10.30;;;6.97;;
45792;SDS011;31495;42.740;22.908;2023-05-01T04:31:16;9.70;;;7.07;;
45792;SDS011;31495;42.740;22.908;2023-05-01T04:32:15;9.80;;;7.22;;
45792;SDS011;31495;42.740;22.908;2023-05-01T04:33:15;10.63;;;7.03;;
45792;SDS011;31495;42.740;22.908;2023-05-01T04:34:15;10.02;;;6.18;;
45792;SDS011;31495;42.740;22.908;2023-05-01T04:35:15;9.80;;;7.25;;
45792;SDS011;31495;42.740;22.908;2023-05-01T04:36:15;8.32;;;5.72;;
45792;SDS011;31495;42.740;22.908;2023-05-01T04:37:15;10.13;;;6.05;;
45792;SDS011;31495;42.740;22.908;2023-05-01T04:38:16;10.40;;;6.40;;
45792;SDS011;31495;42.740;22.908;2023-05-01T04:39:15;9.20;;;6.28;;
45792;SDS011;31495;42.740;22.908;2023-05-01T04:40:15;9.70;;;6.40;;
45792;SDS011;31495;42.740;22.908;2023-05-01T04:41:15;11.25;;;8.10;;
45792;SDS011;31495;42.740;22.908;2023-05-01T04:42:14;10.40;;;7.35;;
45792;SDS011;31495;42.740;22.908;2023-05-01T04:43:14;10.73;;;7.05;;
45792;SDS011;31495;42.740;22.908;2023-05-01T04:44:13;10.82;;;7.10;;
45792;SDS011;31495;42.740;22.908;2023-05-01T04:45:13;10.23;;;6.93;;
45792;SDS011;31495;42.740;22.908;2023-05-01T04:46:13;8.07;;;6.07;;
45792;SDS011;31495;42.740;22.908;2023-05-01T04:47:12;13.63;;;7.43;;
45792;SDS011;31495;42.740;22.908;2023-05-01T04:48:12;12.43;;;7.78;;
45792;SDS011;31495;42.740;22.908;2023-05-01T04:49:11;10.88;;;7.43;;
45792;SDS011;31495;42.740;22.908;2023-05-01T04:50:11;11.45;;;8.07;;
45792;SDS011;31495;42.740;22.908;2023-05-01T04:51:10;11.40;;;8.15;;
45792;SDS011;31495;42.740;22.908;2023-05-01T04:52:09;16.65;;;10.10;;
45792;SDS011;31495;42.740;22.908;2023-05-01T04:53:10;30.05;;;16.98;;
45792;SDS011;31495;42.740;22.908;2023-05-01T04:54:09;40.85;;;21.58;;
45792;SDS011;31495;42.740;22.908;2023-05-01T04:55:09;41.40;;;22.88;;
45792;SDS011;31495;42.740;22.908;2023-05-01T04:56:08;42.00;;;22.77;;
45792;SDS011;31495;42.740;22.908;2023-05-01T04:57:08;41.10;;;22.65;;
45792;SDS011;31495;42.740;22.908;2023-05-01T04:58:08;42.80;;;22.73;;
45792;SDS011;31495;42.740;22.908;2023-05-01T04:59:07;35.17;;;20.42;;
45792;SDS011;31495;42.740;22.908;2023-05-01T05:00:07;26.52;;;15.60;;
45792;SDS011;31495;42.740;22.908;2023-05-01T05:01:07;25.25;;;14.15;;
45792;SDS011;31495;42.740;22.908;2023-05-01T05:02:07;23.38;;;14.07;;
45792;SDS011;31495;42.740;22.908;2023-05-01T05:03:07;21.25;;;13.15;;
45792;SDS011;31495;42.740;22.908;2023-05-01T05:04:06;18.65;;;12.73;;
45792;SDS011;31495;42.740;22.908;2023-05-01T05:05:06;20.30;;;12.15;;
45792;SDS011;31495;42.740;22.908;2023-05-01T05:06:06;20.48;;;13.07;;
45792;SDS011;31495;42.740;22.908;2023-05-01T05:07:05;17.80;;;11.85;;
45792;SDS011;31495;42.740;22.908;2023-05-01T05:08:05;20.83;;;12.63;;
45792;SDS011;31495;42.740;22.908;2023-05-01T05:09:04;21.70;;;12.50;;
45792;SDS011;31495;42.740;22.908;2023-05-01T05:10:03;16.88;;;10.85;;
45792;SDS011;31495;42.740;22.908;2023-05-01T05:11:03;19.08;;;11.20;;
45792;SDS011;31495;42.740;22.908;2023-05-01T05:12:03;17.42;;;10.48;;
45792;SDS011;31495;42.740;22.908;2023-05-01T05:13:03;17.77;;;9.93;;
45792;SDS011;31495;42.740;22.908;2023-05-01T05:14:03;14.65;;;9.68;;
45792;SDS011;31495;42.740;22.908;2023-05-01T05:15:02;12.77;;;8.70;;
45792;SDS011;31495;42.740;22.908;2023-05-01T05:16:02;14.68;;;8.57;;
45792;SDS011;31495;42.740;22.908;2023-05-01T05:17:01;17.15;;;9.25;;
45792;SDS011;31495;42.740;22.908;2023-05-01T05:18:01;15.73;;;10.25;;
45792;SDS011;31495;42.740;22.908;2023-05-01T05:19:02;12.40;;;9.18;;
45792;SDS011;31495;42.740;22.908;2023-05-01T05:20:01;12.75;;;8.45;;
45792;SDS011;31495;42.740;22.908;2023-05-01T05:21:04;12.98;;;8.45;;
45792;SDS011;31495;42.740;22.908;2023-05-01T05:22:04;12.02;;;9.00;;
45792;SDS011;31495;42.740;22.908;2023-05-01T05:23:03;12.73;;;8.75;;
45792;SDS011;31495;42.740;22.908;2023-05-01T05:24:03;14.38;;;8.70;;
45792;SDS011;31495;42.740;22.908;2023-05-01T05:25:03;12.18;;;8.77;;
45792;SDS011;31495;42.740;22.908;2023-05-01T05:26:04;14.25;;;8.65;;
45792;SDS011;31495;42.740;22.908;2023-05-01T05:27:04;12.98;;;8.65;;
45792;SDS011;31495;42.740;22.908;2023-05-01T05:28:05;9.85;;;7.65;;
45792;SDS011;31495;42.740;22.908;2023-05-01T05:29:04;11.52;;;7.72;;
45792;SDS011;31495;42.740;22.908;2023-05-01T05:30:04;9.32;;;7.22;;
45792;SDS011;31495;42.740;22.908;2023-05-01T05:31:12;13.93;;;9.10;;
45792;SDS011;31495;42.740;22.908;2023-05-01T05:32:11;12.27;;;8.02;;
45792;SDS011;31495;42.740;22.908;2023-05-01T05:33:11;16.25;;;9.35;;
45792;SDS011;31495;42.740;22.908;2023-05-01T05:34:11;13.05;;;8.75;;
45792;SDS011;31495;42.740;22.908;2023-05-01T05:35:11;11.75;;;8.40;;
45792;SDS011;31495;42.740;22.908;2023-05-01T05:36:11;11.35;;;7.78;;
45792;SDS011;31495;42.740;22.908;2023-05-01T05:37:10;13.25;;;7.78;;
45792;SDS011;31495;42.740;22.908;2023-05-01T05:38:09;11.25;;;7.18;;
45792;SDS011;31495;42.740;22.908;2023-05-01T05:39:09;10.02;;;7.10;;
45792;SDS011;31495;42.740;22.908;2023-05-01T05:40:10;13.35;;;9.00;;
45792;SDS011;31495;42.740;22.908;2023-05-01T05:41:10;12.75;;;8.10;;
45792;SDS011;31495;42.740;22.908;2023-05-01T05:42:09;15.50;;;9.07;;
45792;SDS011;31495;42.740;22.908;2023-05-01T05:43:09;12.63;;;8.75;;
45792;SDS011;31495;42.740;22.908;2023-05-01T05:44:08;15.57;;;7.85;;
45792;SDS011;31495;42.740;22.908;2023-05-01T05:45:08;10.20;;;7.50;;
45792;SDS011;31495;42.740;22.908;2023-05-01T05:46:08;12.48;;;8.02;;
45792;SDS011;31495;42.740;22.908;2023-05-01T05:47:07;11.63;;;7.97;;
45792;SDS011;31495;42.740;22.908;2023-05-01T05:48:07;10.90;;;7.78;;
45792;SDS011;31495;42.740;22.908;2023-05-01T05:49:06;12.10;;;8.80;;
45792;SDS011;31495;42.740;22.908;2023-05-01T05:50:06;13.07;;;9.10;;
45792;SDS011;31495;42.740;22.908;2023-05-01T05:51:08;11.93;;;7.70;;
45792;SDS011;31495;42.740;22.908;2023-05-01T05:52:07;12.15;;;8.80;;
45792;SDS011;31495;42.740;22.908;2023-05-01T05:53:07;10.93;;;8.50;;
45792;SDS011;31495;42.740;22.908;2023-05-01T05:54:07;13.43;;;9.18;;
45792;SDS011;31495;42.740;22.908;2023-05-01T05:55:07;14.95;;;8.95;;
45792;SDS011;31495;42.740;22.908;2023-05-01T05:56:07;11.45;;;8.32;;
45792;SDS011;31495;42.740;22.908;2023-05-01T05:57:06;13.63;;;7.70;;
45792;SDS011;31495;42.740;22.908;2023-05-01T05:58:06;11.80;;;8.52;;
45792;SDS011;31495;42.740;22.908;2023-05-01T05:59:05;11.55;;;8.65;;
45792;SDS011;31495;42.740;22.908;2023-05-01T06:00:05;13.63;;;9.02;;
45792;SDS011;31495;42.740;22.908;2023-05-01T06:01:06;12.23;;;8.85;;
45792;SDS011;31495;42.740;22.908;2023-05-01T06:02:07;13.13;;;8.90;;
45792;SDS011;31495;42.740;22.908;2023-05-01T06:03:06;11.18;;;7.65;;
45792;SDS011;31495;42.740;22.908;2023-05-01T06:04:06;11.43;;;8.35;;
45792;SDS011;31495;42.740;22.908;2023-05-01T06:05:06;15.32;;;8.93;;
45792;SDS011;31495;42.740;22.908;2023-05-01T06:06:06;11.93;;;9.07;;
45792;SDS011;31495;42.740;22.908;2023-05-01T06:07:05;11.93;;;8.70;;
45792;SDS011;31495;42.740;22.908;2023-05-01T06:08:05;11.30;;;8.48;;
45792;SDS011;31495;42.740;22.908;2023-05-01T06:09:04;11.20;;;8.32;;
45792;SDS011;31495;42.740;22.908;2023-05-01T06:10:06;11.95;;;8.10;;
45792;SDS011;31495;42.740;22.908;2023-05-01T06:11:07;11.57;;;8.32;;
45792;SDS011;31495;42.740;22.908;2023-05-01T06:12:07;12.25;;;8.52;;
45792;SDS011;31495;42.740;22.908;2023-05-01T06:13:07;16.80;;;9.88;;
45792;SDS011;31495;42.740;22.908;2023-05-01T06:14:08;12.05;;;8.93;;